sensor_id;sensor_type;location;lat;lon;timestamp;temperature;humidity
23568;DHT22;11962;50.838;4.430;2023-03-13T00:00:57;12.50;99.90
23568;DHT22;11962;50.838;4.430;2023-03-13T00:03:23;12.40;99.90
23568;DHT22;11962;50.838;4.430;2023-03-13T00:05:49;12.40;99.90
23568;DHT22;11962;50.838;4.430;2023-03-13T00:08:15;12.40;99.90
23568;DHT22;11962;50.838;4.430;2023-03-13T00:10:56;12.30;99.90
23568;DHT22;11962;50.838;4.430;2023-03-13T00:13:22;12.40;99.90
23568;DHT22;11962;50.838;4.430;2023-03-13T00:15:47;12.40;99.90
23568;DHT22;11962;50.838;4.430;2023-03-13T00:18:13;12.40;99.90
23568;DHT22;11962;50.838;4.430;2023-03-13T00:20:39;12.40;99.90
23568;DHT22;11962;50.838;4.430;2023-03-13T00:23:05;12.50;99.90
23568;DHT22;11962;50.838;4.430;2023-03-13T00:25:30;12.40;99.90
23568;DHT22;11962;50.838;4.430;2023-03-13T00:27:56;12.50;99.90
23568;DHT22;11962;50.838;4.430;2023-03-13T00:30:22;12.50;99.90
23568;DHT22;11962;50.838;4.430;2023-03-13T00:32:48;12.60;99.90
23568;DHT22;11962;50.838;4.430;2023-03-13T00:35:14;12.60;99.90
23568;DHT22;11962;50.838;4.430;2023-03-13T00:37:40;12.60;99.90
23568;DHT22;11962;50.838;4.430;2023-03-13T00:40:06;12.60;99.90
23568;DHT22;11962;50.838;4.430;2023-03-13T00:42:33;12.50;99.90
23568;DHT22;11962;50.838;4.430;2023-03-13T00:44:59;12.50;99.90
23568;DHT22;11962;50.838;4.430;2023-03-13T00:47:25;12.60;99.90
23568;DHT22;11962;50.838;4.430;2023-03-13T00:49:51;12.50;99.90
23568;DHT22;11962;50.838;4.430;2023-03-13T00:52:16;12.50;99.90
23568;DHT22;11962;50.838;4.430;2023-03-13T00:55:13;12.50;99.90
23568;DHT22;11962;50.838;4.430;2023-03-13T00:57:39;12.50;99.90
23568;DHT22;11962;50.838;4.430;2023-03-13T01:00:05;12.50;99.90
23568;DHT22;11962;50.838;4.430;2023-03-13T01:02:31;12.50;99.90
23568;DHT22;11962;50.838;4.430;2023-03-13T01:04:57;12.50;99.90
23568;DHT22;11962;50.838;4.430;2023-03-13T01:07:23;12.50;99.90
23568;DHT22;11962;50.838;4.430;2023-03-13T01:09:48;12.50;99.90
23568;DHT22;11962;50.838;4.430;2023-03-13T01:12:14;12.60;99.90
23568;DHT22;11962;50.838;4.430;2023-03-13T01:14:40;12.60;99.90
23568;DHT22;11962;50.838;4.430;2023-03-13T01:17:05;12.60;99.90
23568;DHT22;11962;50.838;4.430;2023-03-13T01:19:31;12.70;99.90
23568;DHT22;11962;50.838;4.430;2023-03-13T01:21:57;12.70;99.90
23568;DHT22;11962;50.838;4.430;2023-03-13T01:24:23;12.70;99.90
23568;DHT22;11962;50.838;4.430;2023-03-13T01:26:49;12.80;99.90
23568;DHT22;11962;50.838;4.430;2023-03-13T01:29:14;12.80;99.90
23568;DHT22;11962;50.838;4.430;2023-03-13T01:31:40;12.90;99.90
23568;DHT22;11962;50.838;4.430;2023-03-13T01:34:06;12.90;99.90
23568;DHT22;11962;50.838;4.430;2023-03-13T01:36:34;13.00;99.90
23568;DHT22;11962;50.838;4.430;2023-03-13T01:39:00;13.00;99.90
23568;DHT22;11962;50.838;4.430;2023-03-13T01:41:29;13.10;99.90
23568;DHT22;11962;50.838;4.430;2023-03-13T01:43:55;13.00;99.90
23568;DHT22;11962;50.838;4.430;2023-03-13T01:46:23;13.00;99.90
23568;DHT22;11962;50.838;4.430;2023-03-13T01:48:51;13.10;99.90
23568;DHT22;11962;50.838;4.430;2023-03-13T01:54:08;13.10;99.90
23568;DHT22;11962;50.838;4.430;2023-03-13T01:56:43;13.10;99.90
23568;DHT22;11962;50.838;4.430;2023-03-13T01:59:12;13.10;99.90
23568;DHT22;11962;50.838;4.430;2023-03-13T02:01:40;13.10;99.90
23568;DHT22;11962;50.838;4.430;2023-03-13T02:04:07;13.10;99.90
23568;DHT22;11962;50.838;4.430;2023-03-13T02:06:35;13.10;99.90
23568;DHT22;11962;50.838;4.430;2023-03-13T02:09:05;13.10;99.90
23568;DHT22;11962;50.838;4.430;2023-03-13T02:12:10;13.20;99.90
23568;DHT22;11962;50.838;4.430;2023-03-13T02:14:39;13.20;99.90
23568;DHT22;11962;50.838;4.430;2023-03-13T02:17:06;13.30;99.90
23568;DHT22;11962;50.838;4.430;2023-03-13T02:19:43;13.30;99.90
23568;DHT22;11962;50.838;4.430;2023-03-13T02:22:26;13.40;99.90
23568;DHT22;11962;50.838;4.430;2023-03-13T02:27:23;13.50;99.90
23568;DHT22;11962;50.838;4.430;2023-03-13T02:29:50;13.50;99.90
23568;DHT22;11962;50.838;4.430;2023-03-13T02:32:16;13.50;99.90
23568;DHT22;11962;50.838;4.430;2023-03-13T02:34:43;13.60;99.90
23568;DHT22;11962;50.838;4.430;2023-03-13T02:37:11;13.60;99.90
23568;DHT22;11962;50.838;4.430;2023-03-13T02:39:41;13.70;99.90
23568;DHT22;11962;50.838;4.430;2023-03-13T02:42:42;13.70;99.90
23568;DHT22;11962;50.838;4.430;2023-03-13T02:45:31;13.70;99.90
23568;DHT22;11962;50.838;4.430;2023-03-13T02:47:57;13.80;99.90
23568;DHT22;11962;50.838;4.430;2023-03-13T02:50:22;13.80;99.90
23568;DHT22;11962;50.838;4.430;2023-03-13T02:52:54;13.80;99.90
23568;DHT22;11962;50.838;4.430;2023-03-13T02:58:38;13.90;99.90
23568;DHT22;11962;50.838;4.430;2023-03-13T03:01:04;14.00;99.90
23568;DHT22;11962;50.838;4.430;2023-03-13T03:03:35;14.00;99.90
23568;DHT22;11962;50.838;4.430;2023-03-13T03:06:03;14.00;99.90
23568;DHT22;11962;50.838;4.430;2023-03-13T03:08:29;13.90;99.90
23568;DHT22;11962;50.838;4.430;2023-03-13T03:14:08;14.10;99.90
23568;DHT22;11962;50.838;4.430;2023-03-13T03:16:34;14.00;99.90
23568;DHT22;11962;50.838;4.430;2023-03-13T03:19:00;14.10;99.90
23568;DHT22;11962;50.838;4.430;2023-03-13T03:21:26;14.10;99.90
23568;DHT22;11962;50.838;4.430;2023-03-13T03:23:51;14.10;99.90
23568;DHT22;11962;50.838;4.430;2023-03-13T03:30:10;14.20;99.90
23568;DHT22;11962;50.838;4.430;2023-03-13T03:32:36;14.30;99.90
23568;DHT22;11962;50.838;4.430;2023-03-13T03:35:02;14.30;99.90
23568;DHT22;11962;50.838;4.430;2023-03-13T03:37:28;14.30;99.90
23568;DHT22;11962;50.838;4.430;2023-03-13T03:39:54;14.30;99.90
23568;DHT22;11962;50.838;4.430;2023-03-13T03:45:51;14.30;99.90
23568;DHT22;11962;50.838;4.430;2023-03-13T03:48:17;14.30;99.90
23568;DHT22;11962;50.838;4.430;2023-03-13T03:50:43;14.30;99.90
23568;DHT22;11962;50.838;4.430;2023-03-13T03:53:09;14.30;99.90
23568;DHT22;11962;50.838;4.430;2023-03-13T03:55:35;14.20;99.90
23568;DHT22;11962;50.838;4.430;2023-03-13T04:01:23;14.40;99.90
23568;DHT22;11962;50.838;4.430;2023-03-13T04:03:49;14.40;99.90
23568;DHT22;11962;50.838;4.430;2023-03-13T04:06:14;14.40;99.90
23568;DHT22;11962;50.838;4.430;2023-03-13T04:08:40;14.40;99.90
23568;DHT22;11962;50.838;4.430;2023-03-13T04:11:06;14.50;99.90
23568;DHT22;11962;50.838;4.430;2023-03-13T04:13:31;14.50;99.90
23568;DHT22;11962;50.838;4.430;2023-03-13T04:15:57;14.50;99.90
23568;DHT22;11962;50.838;4.430;2023-03-13T04:18:23;14.50;99.90
23568;DHT22;11962;50.838;4.430;2023-03-13T04:20:48;14.40;99.90
23568;DHT22;11962;50.838;4.430;2023-03-13T04:23:14;14.50;99.90
23568;DHT22;11962;50.838;4.430;2023-03-13T04:25:40;14.50;99.90
23568;DHT22;11962;50.838;4.430;2023-03-13T04:31:28;14.60;99.90
23568;DHT22;11962;50.838;4.430;2023-03-13T04:33:53;14.50;99.90
23568;DHT22;11962;50.838;4.430;2023-03-13T04:36:19;14.60;99.90
23568;DHT22;11962;50.838;4.430;2023-03-13T04:38:45;14.60;99.90
23568;DHT22;11962;50.838;4.430;2023-03-13T04:41:10;14.60;99.90
23568;DHT22;11962;50.838;4.430;2023-03-13T04:46:45;14.70;99.90
23568;DHT22;11962;50.838;4.430;2023-03-13T04:49:11;14.60;99.90
23568;DHT22;11962;50.838;4.430;2023-03-13T04:51:39;14.60;99.90
23568;DHT22;11962;50.838;4.430;2023-03-13T04:54:05;14.50;99.90
23568;DHT22;11962;50.838;4.430;2023-03-13T04:56:31;14.50;99.90
23568;DHT22;11962;50.838;4.430;2023-03-13T04:58:56;14.60;99.90
23568;DHT22;11962;50.838;4.430;2023-03-13T05:01:22;14.60;99.90
23568;DHT22;11962;50.838;4.430;2023-03-13T05:03:48;14.60;99.90
23568;DHT22;11962;50.838;4.430;2023-03-13T05:06:14;14.50;99.90
23568;DHT22;11962;50.838;4.430;2023-03-13T05:08:39;14.50;99.90
23568;DHT22;11962;50.838;4.430;2023-03-13T05:11:05;14.50;99.90
23568;DHT22;11962;50.838;4.430;2023-03-13T05:13:31;14.60;99.90
23568;DHT22;11962;50.838;4.430;2023-03-13T05:15:59;14.60;99.90
23568;DHT22;11962;50.838;4.430;2023-03-13T05:18:25;14.60;99.90
23568;DHT22;11962;50.838;4.430;2023-03-13T05:20:51;14.60;99.90
23568;DHT22;11962;50.838;4.430;2023-03-13T05:23:16;14.60;99.90
23568;DHT22;11962;50.838;4.430;2023-03-13T05:25:42;14.60;99.90
23568;DHT22;11962;50.838;4.430;2023-03-13T05:28:42;14.70;99.90
23568;DHT22;11962;50.838;4.430;2023-03-13T05:31:08;14.60;99.90
23568;DHT22;11962;50.838;4.430;2023-03-13T05:33:34;14.60;99.90
23568;DHT22;11962;50.838;4.430;2023-03-13T05:35:59;14.70;99.90
23568;DHT22;11962;50.838;4.430;2023-03-13T05:38:25;14.70;99.90
23568;DHT22;11962;50.838;4.430;2023-03-13T05:40:51;14.70;99.90
23568;DHT22;11962;50.838;4.430;2023-03-13T05:43:17;14.80;99.90
23568;DHT22;11962;50.838;4.430;2023-03-13T05:45:43;14.70;99.90
23568;DHT22;11962;50.838;4.430;2023-03-13T05:48:09;14.80;99.90
23568;DHT22;11962;50.838;4.430;2023-03-13T05:50:34;14.70;99.90
23568;DHT22;11962;50.838;4.430;2023-03-13T05:53:00;14.70;99.90
23568;DHT22;11962;50.838;4.430;2023-03-13T05:55:26;14.70;99.90
23568;DHT22;11962;50.838;4.430;2023-03-13T05:58:29;14.70;99.90
23568;DHT22;11962;50.838;4.430;2023-03-13T06:00:55;14.70;99.90
23568;DHT22;11962;50.838;4.430;2023-03-13T06:03:20;14.70;99.90
23568;DHT22;11962;50.838;4.430;2023-03-13T06:05:46;14.70;99.90
23568;DHT22;11962;50.838;4.430;2023-03-13T06:08:12;14.80;99.90
23568;DHT22;11962;50.838;4.430;2023-03-13T06:10:58;14.80;99.90
23568;DHT22;11962;50.838;4.430;2023-03-13T06:13:43;14.80;99.90
23568;DHT22;11962;50.838;4.430;2023-03-13T06:16:09;14.80;99.90
23568;DHT22;11962;50.838;4.430;2023-03-13T06:18:37;14.80;99.90
23568;DHT22;11962;50.838;4.430;2023-03-13T06:21:03;14.80;99.90
23568;DHT22;11962;50.838;4.430;2023-03-13T06:23:29;14.80;99.90
23568;DHT22;11962;50.838;4.430;2023-03-13T06:25:55;14.80;99.90
23568;DHT22;11962;50.838;4.430;2023-03-13T06:28:42;14.90;99.90
23568;DHT22;11962;50.838;4.430;2023-03-13T06:31:09;14.90;99.90
23568;DHT22;11962;50.838;4.430;2023-03-13T06:33:34;14.80;99.90
23568;DHT22;11962;50.838;4.430;2023-03-13T06:36:02;14.80;99.90
23568;DHT22;11962;50.838;4.430;2023-03-13T06:38:28;14.90;99.90
23568;DHT22;11962;50.838;4.430;2023-03-13T06:40:54;14.90;99.90
23568;DHT22;11962;50.838;4.430;2023-03-13T06:43:32;14.90;99.90
23568;DHT22;11962;50.838;4.430;2023-03-13T06:46:03;14.90;99.90
23568;DHT22;11962;50.838;4.430;2023-03-13T06:51:51;15.10;99.90
23568;DHT22;11962;50.838;4.430;2023-03-13T06:54:17;15.00;99.90
23568;DHT22;11962;50.838;4.430;2023-03-13T06:56:43;15.10;99.90
23568;DHT22;11962;50.838;4.430;2023-03-13T06:59:21;15.10;99.90
23568;DHT22;11962;50.838;4.430;2023-03-13T07:01:47;15.10;99.90
23568;DHT22;11962;50.838;4.430;2023-03-13T07:04:12;15.00;99.90
23568;DHT22;11962;50.838;4.430;2023-03-13T07:06:38;15.00;99.90
23568;DHT22;11962;50.838;4.430;2023-03-13T07:09:04;15.00;99.90
23568;DHT22;11962;50.838;4.430;2023-03-13T07:11:30;15.00;99.90
23568;DHT22;11962;50.838;4.430;2023-03-13T07:14:05;15.00;99.90
23568;DHT22;11962;50.838;4.430;2023-03-13T07:16:31;15.00;99.90
23568;DHT22;11962;50.838;4.430;2023-03-13T07:18:56;15.20;99.90
23568;DHT22;11962;50.838;4.430;2023-03-13T07:21:22;15.20;99.90
23568;DHT22;11962;50.838;4.430;2023-03-13T07:23:48;15.30;99.90
23568;DHT22;11962;50.838;4.430;2023-03-13T07:26:14;15.30;99.90
23568;DHT22;11962;50.838;4.430;2023-03-13T07:29:06;15.40;99.90
23568;DHT22;11962;50.838;4.430;2023-03-13T07:31:31;15.40;99.90
23568;DHT22;11962;50.838;4.430;2023-03-13T07:33:58;15.40;99.90
23568;DHT22;11962;50.838;4.430;2023-03-13T07:36:24;15.40;99.90
23568;DHT22;11962;50.838;4.430;2023-03-13T07:38:51;15.50;99.90
23568;DHT22;11962;50.838;4.430;2023-03-13T07:41:18;15.50;99.90
23568;DHT22;11962;50.838;4.430;2023-03-13T07:43:56;15.40;99.90
23568;DHT22;11962;50.838;4.430;2023-03-13T07:46:22;15.60;99.90
23568;DHT22;11962;50.838;4.430;2023-03-13T07:48:48;15.80;99.90
23568;DHT22;11962;50.838;4.430;2023-03-13T07:51:19;15.90;99.90
23568;DHT22;11962;50.838;4.430;2023-03-13T07:53:46;15.80;99.90
23568;DHT22;11962;50.838;4.430;2023-03-13T07:56:17;15.80;99.90
23568;DHT22;11962;50.838;4.430;2023-03-13T07:58:44;15.70;99.90
23568;DHT22;11962;50.838;4.430;2023-03-13T08:03:43;15.60;99.90
23568;DHT22;11962;50.838;4.430;2023-03-13T08:06:14;15.50;99.90
23568;DHT22;11962;50.838;4.430;2023-03-13T08:08:44;15.40;99.90
23568;DHT22;11962;50.838;4.430;2023-03-13T08:11:12;15.30;99.90
23568;DHT22;11962;50.838;4.430;2023-03-13T08:13:39;15.20;99.90
23568;DHT22;11962;50.838;4.430;2023-03-13T08:16:11;15.20;99.90
23568;DHT22;11962;50.838;4.430;2023-03-13T08:18:40;15.40;99.90
23568;DHT22;11962;50.838;4.430;2023-03-13T08:21:11;15.80;99.90
23568;DHT22;11962;50.838;4.430;2023-03-13T08:23:38;16.10;99.90
23568;DHT22;11962;50.838;4.430;2023-03-13T08:26:08;16.40;99.90
23568;DHT22;11962;50.838;4.430;2023-03-13T08:28:35;16.50;99.90
23568;DHT22;11962;50.838;4.430;2023-03-13T08:31:16;16.60;99.90
23568;DHT22;11962;50.838;4.430;2023-03-13T08:33:43;16.60;99.90
23568;DHT22;11962;50.838;4.430;2023-03-13T08:36:15;16.80;99.90
23568;DHT22;11962;50.838;4.430;2023-03-13T08:38:42;17.40;99.90
23568;DHT22;11962;50.838;4.430;2023-03-13T08:41:09;18.50;99.90
23568;DHT22;11962;50.838;4.430;2023-03-13T08:43:35;18.40;99.90
23568;DHT22;11962;50.838;4.430;2023-03-13T08:46:00;18.20;99.90
23568;DHT22;11962;50.838;4.430;2023-03-13T08:48:26;18.20;99.90
23568;DHT22;11962;50.838;4.430;2023-03-13T08:51:00;19.00;99.90
23568;DHT22;11962;50.838;4.430;2023-03-13T08:53:27;19.70;99.90
23568;DHT22;11962;50.838;4.430;2023-03-13T08:55:53;20.30;99.90
23568;DHT22;11962;50.838;4.430;2023-03-13T08:58:19;20.80;99.90
23568;DHT22;11962;50.838;4.430;2023-03-13T09:00:45;20.80;99.90
23568;DHT22;11962;50.838;4.430;2023-03-13T09:03:11;20.50;99.90
23568;DHT22;11962;50.838;4.430;2023-03-13T09:05:37;19.80;99.90
23568;DHT22;11962;50.838;4.430;2023-03-13T09:08:03;19.20;99.90
23568;DHT22;11962;50.838;4.430;2023-03-13T09:10:31;18.80;99.90
23568;DHT22;11962;50.838;4.430;2023-03-13T09:12:57;18.50;99.90
23568;DHT22;11962;50.838;4.430;2023-03-13T09:15:23;18.60;99.90
23568;DHT22;11962;50.838;4.430;2023-03-13T09:17:49;18.50;99.90
23568;DHT22;11962;50.838;4.430;2023-03-13T09:20:14;18.60;99.90
23568;DHT22;11962;50.838;4.430;2023-03-13T09:22:40;18.80;99.90
23568;DHT22;11962;50.838;4.430;2023-03-13T09:25:06;19.00;99.90
23568;DHT22;11962;50.838;4.430;2023-03-13T09:27:32;20.50;99.90
23568;DHT22;11962;50.838;4.430;2023-03-13T09:33:21;22.10;99.90
23568;DHT22;11962;50.838;4.430;2023-03-13T09:35:50;24.10;99.90
23568;DHT22;11962;50.838;4.430;2023-03-13T09:38:22;24.00;99.90
23568;DHT22;11962;50.838;4.430;2023-03-13T09:40:49;23.40;99.90
23568;DHT22;11962;50.838;4.430;2023-03-13T09:45:45;24.20;99.90
23568;DHT22;11962;50.838;4.430;2023-03-13T09:48:35;23.40;99.90
23568;DHT22;11962;50.838;4.430;2023-03-13T09:51:14;22.80;99.90
23568;DHT22;11962;50.838;4.430;2023-03-13T09:56:54;24.80;99.90
23568;DHT22;11962;50.838;4.430;2023-03-13T10:01:56;26.20;98.30
23568;DHT22;11962;50.838;4.430;2023-03-13T10:04:37;25.50;97.90
23568;DHT22;11962;50.838;4.430;2023-03-13T10:07:09;24.90;98.70
23568;DHT22;11962;50.838;4.430;2023-03-13T10:09:36;24.70;98.80
23568;DHT22;11962;50.838;4.430;2023-03-13T10:12:26;24.50;99.50
23568;DHT22;11962;50.838;4.430;2023-03-13T10:15:02;25.10;98.30
23568;DHT22;11962;50.838;4.430;2023-03-13T10:17:37;25.60;97.00
23568;DHT22;11962;50.838;4.430;2023-03-13T10:22:45;25.30;95.30
23568;DHT22;11962;50.838;4.430;2023-03-13T10:25:35;24.80;96.00
23568;DHT22;11962;50.838;4.430;2023-03-13T10:28:13;24.60;96.30
23568;DHT22;11962;50.838;4.430;2023-03-13T10:33:47;23.70;96.20
23568;DHT22;11962;50.838;4.430;2023-03-13T10:36:23;22.80;98.30
23568;DHT22;11962;50.838;4.430;2023-03-13T10:39:25;22.00;99.90
23568;DHT22;11962;50.838;4.430;2023-03-13T10:42:24;21.40;99.90
23568;DHT22;11962;50.838;4.430;2023-03-13T10:44:58;20.90;99.90
23568;DHT22;11962;50.838;4.430;2023-03-13T10:51:29;21.60;99.90
23568;DHT22;11962;50.838;4.430;2023-03-13T10:54:22;23.50;99.90
23568;DHT22;11962;50.838;4.430;2023-03-13T10:56:50;24.80;96.70
23568;DHT22;11962;50.838;4.430;2023-03-13T10:59:46;25.20;95.10
23568;DHT22;11962;50.838;4.430;2023-03-13T11:02:41;25.70;93.30
23568;DHT22;11962;50.838;4.430;2023-03-13T11:05:28;26.60;91.50
23568;DHT22;11962;50.838;4.430;2023-03-13T11:08:27;27.80;89.10
23568;DHT22;11962;50.838;4.430;2023-03-13T11:11:17;28.40;83.10
23568;DHT22;11962;50.838;4.430;2023-03-13T11:20:36;26.60;80.00
23568;DHT22;11962;50.838;4.430;2023-03-13T11:33:37;25.70;85.50
23568;DHT22;11962;50.838;4.430;2023-03-13T11:47:21;23.70;90.30
23568;DHT22;11962;50.838;4.430;2023-03-13T12:05:58;24.10;90.20
23568;DHT22;11962;50.838;4.430;2023-03-13T12:08:49;24.10;90.20
23568;DHT22;11962;50.838;4.430;2023-03-13T12:11:25;23.80;90.50
23568;DHT22;11962;50.838;4.430;2023-03-13T12:14:15;23.60;91.10
23568;DHT22;11962;50.838;4.430;2023-03-13T12:16:45;23.50;91.20
23568;DHT22;11962;50.838;4.430;2023-03-13T12:19:47;23.50;91.60
23568;DHT22;11962;50.838;4.430;2023-03-13T12:22:22;23.40;92.10
23568;DHT22;11962;50.838;4.430;2023-03-13T12:30:44;22.90;92.80
23568;DHT22;11962;50.838;4.430;2023-03-13T12:37:38;22.30;93.60
23568;DHT22;11962;50.838;4.430;2023-03-13T12:43:11;21.80;93.70
23568;DHT22;11962;50.838;4.430;2023-03-13T13:00:23;21.30;94.40
23568;DHT22;11962;50.838;4.430;2023-03-13T13:06:17;21.30;94.10
23568;DHT22;11962;50.838;4.430;2023-03-13T13:08:46;21.10;94.80
23568;DHT22;11962;50.838;4.430;2023-03-13T13:16:43;21.00;95.60
23568;DHT22;11962;50.838;4.430;2023-03-13T13:24:55;21.00;94.10
23568;DHT22;11962;50.838;4.430;2023-03-13T13:27:45;20.80;94.70
23568;DHT22;11962;50.838;4.430;2023-03-13T13:32:51;20.90;94.00
23568;DHT22;11962;50.838;4.430;2023-03-13T13:35:35;20.80;94.00
23568;DHT22;11962;50.838;4.430;2023-03-13T13:41:06;20.80;94.60
23568;DHT22;11962;50.838;4.430;2023-03-13T13:43:47;20.80;94.10
23568;DHT22;11962;50.838;4.430;2023-03-13T13:46:33;20.80;93.00
23568;DHT22;11962;50.838;4.430;2023-03-13T13:49:25;20.60;92.50
23568;DHT22;11962;50.838;4.430;2023-03-13T13:54:53;20.40;92.60
23568;DHT22;11962;50.838;4.430;2023-03-13T13:57:22;20.50;92.70
23568;DHT22;11962;50.838;4.430;2023-03-13T13:59:53;20.60;92.30
23568;DHT22;11962;50.838;4.430;2023-03-13T14:02:20;20.60;92.20
23568;DHT22;11962;50.838;4.430;2023-03-13T14:05:00;20.40;92.40
23568;DHT22;11962;50.838;4.430;2023-03-13T14:13:29;20.20;92.80
23568;DHT22;11962;50.838;4.430;2023-03-13T14:15:55;20.20;92.80
23568;DHT22;11962;50.838;4.430;2023-03-13T14:18:26;20.00;92.60
23568;DHT22;11962;50.838;4.430;2023-03-13T14:21:09;19.90;93.20
23568;DHT22;11962;50.838;4.430;2023-03-13T14:23:43;19.80;93.00
23568;DHT22;11962;50.838;4.430;2023-03-13T14:26:16;19.80;93.40
23568;DHT22;11962;50.838;4.430;2023-03-13T14:28:46;19.80;93.80
23568;DHT22;11962;50.838;4.430;2023-03-13T14:31:29;19.70;93.00
23568;DHT22;11962;50.838;4.430;2023-03-13T14:33:58;19.70;94.00
23568;DHT22;11962;50.838;4.430;2023-03-13T14:36:24;19.70;94.30
23568;DHT22;11962;50.838;4.430;2023-03-13T14:38:55;19.60;94.70
23568;DHT22;11962;50.838;4.430;2023-03-13T14:41:43;19.50;94.70
23568;DHT22;11962;50.838;4.430;2023-03-13T14:44:23;19.40;94.50
23568;DHT22;11962;50.838;4.430;2023-03-13T14:46:54;19.50;94.30
23568;DHT22;11962;50.838;4.430;2023-03-13T14:49:29;19.40;94.30
23568;DHT22;11962;50.838;4.430;2023-03-13T14:52:16;19.40;94.30
23568;DHT22;11962;50.838;4.430;2023-03-13T14:54:58;19.40;93.90
23568;DHT22;11962;50.838;4.430;2023-03-13T14:57:27;19.40;93.90
23568;DHT22;11962;50.838;4.430;2023-03-13T14:59:54;19.40;94.20
23568;DHT22;11962;50.838;4.430;2023-03-13T15:02:23;19.40;94.00
23568;DHT22;11962;50.838;4.430;2023-03-13T15:07:16;19.50;94.30
23568;DHT22;11962;50.838;4.430;2023-03-13T15:09:43;19.60;93.90
23568;DHT22;11962;50.838;4.430;2023-03-13T15:12:15;19.60;93.40
23568;DHT22;11962;50.838;4.430;2023-03-13T15:14:51;19.60;92.40
23568;DHT22;11962;50.838;4.430;2023-03-13T15:17:24;19.60;91.60
23568;DHT22;11962;50.838;4.430;2023-03-13T15:19:57;19.50;92.00
23568;DHT22;11962;50.838;4.430;2023-03-13T15:22:31;19.60;92.60
23568;DHT22;11962;50.838;4.430;2023-03-13T15:25:21;19.50;92.60
23568;DHT22;11962;50.838;4.430;2023-03-13T15:27:48;19.50;93.20
23568;DHT22;11962;50.838;4.430;2023-03-13T15:30:16;19.50;93.20
23568;DHT22;11962;50.838;4.430;2023-03-13T15:32:43;19.40;93.30
23568;DHT22;11962;50.838;4.430;2023-03-13T15:35:25;19.40;93.10
23568;DHT22;11962;50.838;4.430;2023-03-13T15:37:52;19.50;93.10
23568;DHT22;11962;50.838;4.430;2023-03-13T15:40:18;19.50;92.80
23568;DHT22;11962;50.838;4.430;2023-03-13T15:42:44;19.40;92.70
23568;DHT22;11962;50.838;4.430;2023-03-13T15:45:10;19.40;93.10
23568;DHT22;11962;50.838;4.430;2023-03-13T15:47:36;19.30;92.90
23568;DHT22;11962;50.838;4.430;2023-03-13T15:50:02;19.10;93.00
23568;DHT22;11962;50.838;4.430;2023-03-13T15:52:28;19.00;93.30
23568;DHT22;11962;50.838;4.430;2023-03-13T15:54:54;19.00;93.30
23568;DHT22;11962;50.838;4.430;2023-03-13T15:57:23;19.00;93.50
23568;DHT22;11962;50.838;4.430;2023-03-13T15:59:51;18.90;93.50
23568;DHT22;11962;50.838;4.430;2023-03-13T16:02:19;18.90;93.40
23568;DHT22;11962;50.838;4.430;2023-03-13T16:04:46;19.00;93.50
23568;DHT22;11962;50.838;4.430;2023-03-13T16:07:15;18.90;93.50
23568;DHT22;11962;50.838;4.430;2023-03-13T16:09:41;18.90;93.60
23568;DHT22;11962;50.838;4.430;2023-03-13T16:12:08;18.80;93.80
23568;DHT22;11962;50.838;4.430;2023-03-13T16:14:34;18.60;94.20
23568;DHT22;11962;50.838;4.430;2023-03-13T16:17:01;18.50;94.40
23568;DHT22;11962;50.838;4.430;2023-03-13T16:19:28;18.50;94.90
23568;DHT22;11962;50.838;4.430;2023-03-13T16:21:54;18.50;94.80
23568;DHT22;11962;50.838;4.430;2023-03-13T16:24:19;18.40;94.90
23568;DHT22;11962;50.838;4.430;2023-03-13T16:26:46;18.50;94.80
23568;DHT22;11962;50.838;4.430;2023-03-13T16:29:15;18.50;94.60
23568;DHT22;11962;50.838;4.430;2023-03-13T16:31:41;18.50;94.70
23568;DHT22;11962;50.838;4.430;2023-03-13T16:34:07;18.50;94.60
23568;DHT22;11962;50.838;4.430;2023-03-13T16:36:34;18.50;94.70
23568;DHT22;11962;50.838;4.430;2023-03-13T16:39:03;18.40;94.80
23568;DHT22;11962;50.838;4.430;2023-03-13T16:41:30;18.40;94.80
23568;DHT22;11962;50.838;4.430;2023-03-13T16:43:57;18.40;94.70
23568;DHT22;11962;50.838;4.430;2023-03-13T16:46:36;18.20;94.90
23568;DHT22;11962;50.838;4.430;2023-03-13T16:49:02;18.20;95.00
23568;DHT22;11962;50.838;4.430;2023-03-13T16:51:28;18.20;95.20
23568;DHT22;11962;50.838;4.430;2023-03-13T16:53:56;18.10;95.20
23568;DHT22;11962;50.838;4.430;2023-03-13T16:56:31;18.00;95.40
23568;DHT22;11962;50.838;4.430;2023-03-13T16:59:06;18.00;95.50
23568;DHT22;11962;50.838;4.430;2023-03-13T17:01:32;18.00;95.60
23568;DHT22;11962;50.838;4.430;2023-03-13T17:03:58;17.90;95.50
23568;DHT22;11962;50.838;4.430;2023-03-13T17:06:26;17.80;95.80
23568;DHT22;11962;50.838;4.430;2023-03-13T17:08:53;17.70;96.00
23568;DHT22;11962;50.838;4.430;2023-03-13T17:11:20;17.70;96.00
23568;DHT22;11962;50.838;4.430;2023-03-13T17:13:47;17.70;96.00
23568;DHT22;11962;50.838;4.430;2023-03-13T17:16:16;17.70;96.10
23568;DHT22;11962;50.838;4.430;2023-03-13T17:18:44;17.60;96.60
23568;DHT22;11962;50.838;4.430;2023-03-13T17:21:16;17.50;96.30
23568;DHT22;11962;50.838;4.430;2023-03-13T17:23:43;17.50;96.50
23568;DHT22;11962;50.838;4.430;2023-03-13T17:26:32;17.50;96.50
23568;DHT22;11962;50.838;4.430;2023-03-13T17:28:59;17.50;96.50
23568;DHT22;11962;50.838;4.430;2023-03-13T17:31:26;17.50;96.80
23568;DHT22;11962;50.838;4.430;2023-03-13T17:33:55;17.40;96.90
23568;DHT22;11962;50.838;4.430;2023-03-13T17:36:23;17.50;96.90
23568;DHT22;11962;50.838;4.430;2023-03-13T17:38:51;17.30;97.20
23568;DHT22;11962;50.838;4.430;2023-03-13T17:41:20;17.30;97.40
23568;DHT22;11962;50.838;4.430;2023-03-13T17:43:48;17.30;97.60
23568;DHT22;11962;50.838;4.430;2023-03-13T17:46:30;17.20;97.80
23568;DHT22;11962;50.838;4.430;2023-03-13T17:49:00;17.10;97.90
23568;DHT22;11962;50.838;4.430;2023-03-13T17:51:28;17.00;98.10
23568;DHT22;11962;50.838;4.430;2023-03-13T17:53:55;17.00;98.40
23568;DHT22;11962;50.838;4.430;2023-03-13T17:56:24;16.90;98.50
23568;DHT22;11962;50.838;4.430;2023-03-13T17:58:52;16.90;98.70
23568;DHT22;11962;50.838;4.430;2023-03-13T18:01:20;16.80;98.90
23568;DHT22;11962;50.838;4.430;2023-03-13T18:03:47;16.80;99.00
23568;DHT22;11962;50.838;4.430;2023-03-13T18:06:23;16.80;99.30
23568;DHT22;11962;50.838;4.430;2023-03-13T18:08:51;16.70;99.60
23568;DHT22;11962;50.838;4.430;2023-03-13T18:11:17;16.70;99.90
23568;DHT22;11962;50.838;4.430;2023-03-13T18:13:44;16.60;99.90
23568;DHT22;11962;50.838;4.430;2023-03-13T18:16:28;16.60;99.90
23568;DHT22;11962;50.838;4.430;2023-03-13T18:18:55;16.50;99.90
23568;DHT22;11962;50.838;4.430;2023-03-13T18:21:22;16.40;99.90
23568;DHT22;11962;50.838;4.430;2023-03-13T18:23:49;16.30;99.90
23568;DHT22;11962;50.838;4.430;2023-03-13T18:28:56;16.30;99.90
23568;DHT22;11962;50.838;4.430;2023-03-13T18:31:29;16.20;99.90